sensor_id;sensor_type;location;lat;lon;timestamp;pressure;altitude;pressure_sealevel;temperature;humidity
4814;BME280;15375;48.540;9.268;2024-01-25T00:01:56;98550.69;;;9.04;100.00
4814;BME280;15375;48.540;9.268;2024-01-25T00:04:21;98565.47;;;9.07;100.00
4814;BME280;15375;48.540;9.268;2024-01-25T00:06:47;98561.22;;;9.06;100.00
4814;BME280;15375;48.540;9.268;2024-01-25T00:09:12;98550.63;;;8.93;100.00
4814;BME280;15375;48.540;9.268;2024-01-25T00:11:38;98543.59;;;8.92;100.00
4814;BME280;15375;48.540;9.268;2024-01-25T00:14:03;98553.78;;;9.03;100.00
4814;BME280;15375;48.540;9.268;2024-01-25T00:16:29;98552.66;;;9.04;100.00
4814;BME280;15375;48.540;9.268;2024-01-25T00:18:54;98551.47;;;9.01;100.00
4814;BME280;15375;48.540;9.268;2024-01-25T00:21:19;98539.31;;;8.91;100.00
4814;BME280;15375;48.540;9.268;2024-01-25T00:23:45;98548.34;;;9.03;100.00
4814;BME280;15375;48.540;9.268;2024-01-25T00:26:10;98545.25;;;9.04;100.00
4814;BME280;15375;48.540;9.268;2024-01-25T00:28:36;98538.97;;;8.96;100.00
4814;BME280;15375;48.540;9.268;2024-01-25T00:31:01;98515.56;;;8.85;100.00
4814;BME280;15375;48.540;9.268;2024-01-25T00:33:27;98530.78;;;8.93;100.00
4814;BME280;15375;48.540;9.268;2024-01-25T00:35:53;98533.16;;;8.98;100.00
4814;BME280;15375;48.540;9.268;2024-01-25T00:38:18;98526.91;;;8.94;100.00
4814;BME280;15375;48.540;9.268;2024-01-25T00:40:44;98532.75;;;8.96;100.00
4814;BME280;15375;48.540;9.268;2024-01-25T00:43:10;98528.84;;;8.93;100.00
4814;BME280;15375;48.540;9.268;2024-01-25T00:45:36;98523.72;;;8.85;100.00
4814;BME280;15375;48.540;9.268;2024-01-25T00:48:02;98528.38;;;8.81;100.00
4814;BME280;15375;48.540;9.268;2024-01-25T00:50:28;98528.38;;;8.84;100.00
4814;BME280;15375;48.540;9.268;2024-01-25T00:52:53;98513.16;;;8.76;100.00
4814;BME280;15375;48.540;9.268;2024-01-25T00:55:19;98531.09;;;8.84;100.00
4814;BME280;15375;48.540;9.268;2024-01-25T00:57:45;98529.56;;;8.87;100.00
4814;BME280;15375;48.540;9.268;2024-01-25T01:00:12;98520.97;;;8.78;100.00
4814;BME280;15375;48.540;9.268;2024-01-25T01:02:43;98529.56;;;8.87;100.00
4814;BME280;15375;48.540;9.268;2024-01-25T01:05:10;98527.19;;;8.82;100.00
4814;BME280;15375;48.540;9.268;2024-01-25T01:07:35;98532.63;;;8.82;100.00
4814;BME280;15375;48.540;9.268;2024-01-25T01:10:01;98529.47;;;8.76;100.00
4814;BME280;15375;48.540;9.268;2024-01-25T01:12:26;98535.75;;;8.84;100.00
4814;BME280;15375;48.540;9.268;2024-01-25T01:14:52;98527.19;;;8.78;100.00
4814;BME280;15375;48.540;9.268;2024-01-25T01:17:17;98527.19;;;8.82;100.00
4814;BME280;15375;48.540;9.268;2024-01-25T01:19:44;98533.81;;;8.81;100.00
4814;BME280;15375;48.540;9.268;2024-01-25T01:22:09;98520.56;;;8.76;100.00
4814;BME280;15375;48.540;9.268;2024-01-25T01:24:34;98523.31;;;8.83;100.00
4814;BME280;15375;48.540;9.268;2024-01-25T01:27:00;98530.75;;;8.86;100.00
4814;BME280;15375;48.540;9.268;2024-01-25T01:29:25;98529.94;;;8.85;100.00
4814;BME280;15375;48.540;9.268;2024-01-25T01:31:51;98539.66;;;8.86;100.00
4814;BME280;15375;48.540;9.268;2024-01-25T01:34:16;98547.50;;;8.95;100.00
4814;BME280;15375;48.540;9.268;2024-01-25T01:36:43;98536.97;;;8.90;100.00
4814;BME280;15375;48.540;9.268;2024-01-25T01:39:08;98537.31;;;8.85;100.00
4814;BME280;15375;48.540;9.268;2024-01-25T01:41:34;98527.94;;;8.75;100.00
4814;BME280;15375;48.540;9.268;2024-01-25T01:44:00;98549.28;;;8.73;100.00
4814;BME280;15375;48.540;9.268;2024-01-25T01:48:56;98515.59;;;8.45;100.00
4814;BME280;15375;48.540;9.268;2024-01-25T01:51:22;98507.84;;;8.47;100.00
4814;BME280;15375;48.540;9.268;2024-01-25T01:53:47;98516.00;;;8.43;100.00
4814;BME280;15375;48.540;9.268;2024-01-25T01:56:14;98519.47;;;8.44;100.00
4814;BME280;15375;48.540;9.268;2024-01-25T01:58:39;98505.47;;;8.42;100.00
4814;BME280;15375;48.540;9.268;2024-01-25T02:01:05;98514.47;;;8.49;100.00
4814;BME280;15375;48.540;9.268;2024-01-25T02:03:30;98514.81;;;8.44;100.00
4814;BME280;15375;48.540;9.268;2024-01-25T02:05:56;98521.09;;;8.48;100.00
4814;BME280;15375;48.540;9.268;2024-01-25T02:08:27;98494.97;;;8.40;100.00
4814;BME280;15375;48.540;9.268;2024-01-25T02:10:53;98521.56;;;8.57;100.00
4814;BME280;15375;48.540;9.268;2024-01-25T02:13:18;98523.88;;;8.59;100.00
4814;BME280;15375;48.540;9.268;2024-01-25T02:15:43;98512.25;;;8.62;100.00
4814;BME280;15375;48.540;9.268;2024-01-25T02:18:09;98508.34;;;8.56;100.00
4814;BME280;15375;48.540;9.268;2024-01-25T02:20:35;98504.78;;;8.48;100.00
4814;BME280;15375;48.540;9.268;2024-01-25T02:23:00;98524.31;;;8.61;100.00
4814;BME280;15375;48.540;9.268;2024-01-25T02:25:25;98523.13;;;8.58;100.00
4814;BME280;15375;48.540;9.268;2024-01-25T02:27:51;98521.09;;;8.52;100.00
4814;BME280;15375;48.540;9.268;2024-01-25T02:30:16;98496.13;;;8.39;100.00
4814;BME280;15375;48.540;9.268;2024-01-25T02:32:43;98520.00;;;8.60;100.00
4814;BME280;15375;48.540;9.268;2024-01-25T02:35:09;98504.78;;;8.52;100.00
4814;BME280;15375;48.540;9.268;2024-01-25T02:37:34;98516.56;;;8.63;100.00
4814;BME280;15375;48.540;9.268;2024-01-25T02:39:59;98500.53;;;8.51;100.00
4814;BME280;15375;48.540;9.268;2024-01-25T02:42:25;98520.06;;;8.63;100.00
4814;BME280;15375;48.540;9.268;2024-01-25T02:44:50;98523.13;;;8.62;100.00
4814;BME280;15375;48.540;9.268;2024-01-25T02:47:15;98519.22;;;8.56;100.00
4814;BME280;15375;48.540;9.268;2024-01-25T02:49:41;98525.47;;;8.60;100.00
4814;BME280;15375;48.540;9.268;2024-01-25T02:52:06;98536.22;;;8.49;100.00
4814;BME280;15375;48.540;9.268;2024-01-25T02:54:34;98533.78;;;8.37;100.00
4814;BME280;15375;48.540;9.268;2024-01-25T02:57:01;98523.25;;;8.32;100.00
4814;BME280;15375;48.540;9.268;2024-01-25T02:59:27;98535.25;;;8.31;100.00
4814;BME280;15375;48.540;9.268;2024-01-25T03:01:53;98529.81;;;8.31;100.00
4814;BME280;15375;48.540;9.268;2024-01-25T03:04:19;98509.50;;;8.18;100.00
4814;BME280;15375;48.540;9.268;2024-01-25T03:06:44;98518.00;;;8.16;100.00
4814;BME280;15375;48.540;9.268;2024-01-25T03:09:09;98495.34;;;8.02;100.00
4814;BME280;15375;48.540;9.268;2024-01-25T03:11:35;98513.69;;;8.12;100.00
4814;BME280;15375;48.540;9.268;2024-01-25T03:14:00;98520.59;;;8.06;100.00
4814;BME280;15375;48.540;9.268;2024-01-25T03:16:25;98502.63;;;7.94;100.00
4814;BME280;15375;48.540;9.268;2024-01-25T03:18:51;98525.72;;;8.11;100.00
4814;BME280;15375;48.540;9.268;2024-01-25T03:21:16;98520.97;;;8.04;100.00
4814;BME280;15375;48.540;9.268;2024-01-25T03:23:41;98532.59;;;8.01;100.00
4814;BME280;15375;48.540;9.268;2024-01-25T03:26:07;98545.16;;;8.13;100.00
4814;BME280;15375;48.540;9.268;2024-01-25T03:28:34;98553.66;;;8.11;100.00
4814;BME280;15375;48.540;9.268;2024-01-25T03:31:00;98540.00;;;8.04;100.00
4814;BME280;15375;48.540;9.268;2024-01-25T03:33:26;98552.06;;;8.07;100.00
4814;BME280;15375;48.540;9.268;2024-01-25T03:35:53;98548.16;;;8.04;100.00
4814;BME280;15375;48.540;9.268;2024-01-25T03:38:18;98539.72;;;8.13;100.00
4814;BME280;15375;48.540;9.268;2024-01-25T03:40:44;98519.00;;;8.01;100.00
4814;BME280;15375;48.540;9.268;2024-01-25T03:43:09;98530.19;;;7.96;100.00
4814;BME280;15375;48.540;9.268;2024-01-25T03:45:34;98539.16;;;7.97;100.00
4814;BME280;15375;48.540;9.268;2024-01-25T03:48:00;98545.78;;;7.99;100.00
4814;BME280;15375;48.540;9.268;2024-01-25T03:50:26;98538.28;;;7.89;100.00
4814;BME280;15375;48.540;9.268;2024-01-25T03:52:52;98543.31;;;7.91;100.00
4814;BME280;15375;48.540;9.268;2024-01-25T03:55:17;98546.03;;;7.91;100.00
4814;BME280;15375;48.540;9.268;2024-01-25T03:57:42;98536.63;;;7.81;100.00
4814;BME280;15375;48.540;9.268;2024-01-25T04:00:09;98568.28;;;8.00;100.00
4814;BME280;15375;48.540;9.268;2024-01-25T04:02:36;98568.28;;;8.00;100.00
4814;BME280;15375;48.540;9.268;2024-01-25T04:05:01;98582.34;;;8.05;100.00
4814;BME280;15375;48.540;9.268;2024-01-25T04:07:26;98577.19;;;7.97;100.00
4814;BME280;15375;48.540;9.268;2024-01-25T04:09:52;98577.91;;;7.94;100.00
4814;BME280;15375;48.540;9.268;2024-01-25T04:12:17;98578.66;;;7.91;100.00
4814;BME280;15375;48.540;9.268;2024-01-25T04:14:43;98578.28;;;7.92;100.00
4814;BME280;15375;48.540;9.268;2024-01-25T04:17:08;98584.94;;;7.98;100.00
4814;BME280;15375;48.540;9.268;2024-01-25T04:19:35;98590.03;;;8.00;100.00
4814;BME280;15375;48.540;9.268;2024-01-25T04:22:00;98583.41;;;7.97;100.00
4814;BME280;15375;48.540;9.268;2024-01-25T04:24:26;98584.53;;;7.96;100.00
4814;BME280;15375;48.540;9.268;2024-01-25T04:26:51;98559.19;;;7.85;100.00
4814;BME280;15375;48.540;9.268;2024-01-25T04:29:17;98557.22;;;7.82;100.00
4814;BME280;15375;48.540;9.268;2024-01-25T04:31:43;98590.06;;;8.03;100.00
4814;BME280;15375;48.540;9.268;2024-01-25T04:34:10;98594.34;;;8.04;100.00
4814;BME280;15375;48.540;9.268;2024-01-25T04:36:35;98591.63;;;8.04;100.00
4814;BME280;15375;48.540;9.268;2024-01-25T04:39:01;98573.91;;;7.84;100.00
4814;BME280;15375;48.540;9.268;2024-01-25T04:41:27;98594.22;;;7.94;100.00
4814;BME280;15375;48.540;9.268;2024-01-25T04:43:52;98580.53;;;7.87;100.00
4814;BME280;15375;48.540;9.268;2024-01-25T04:46:17;98618.66;;;7.94;100.00
4814;BME280;15375;48.540;9.268;2024-01-25T04:48:43;98593.34;;;7.86;100.00
4814;BME280;15375;48.540;9.268;2024-01-25T04:51:15;98606.19;;;7.89;100.00
4814;BME280;15375;48.540;9.268;2024-01-25T04:53:40;98595.25;;;7.86;100.00
4814;BME280;15375;48.540;9.268;2024-01-25T04:56:05;98610.91;;;7.96;100.00
4814;BME280;15375;48.540;9.268;2024-01-25T04:58:31;98618.34;;;7.99;100.00
4814;BME280;15375;48.540;9.268;2024-01-25T05:00:56;98609.72;;;7.93;100.00
4814;BME280;15375;48.540;9.268;2024-01-25T05:03:21;98620.25;;;7.98;100.00
4814;BME280;15375;48.540;9.268;2024-01-25T05:05:47;98606.97;;;7.90;100.00
4814;BME280;15375;48.540;9.268;2024-01-25T05:08:12;98584.22;;;7.71;100.00
4814;BME280;15375;48.540;9.268;2024-01-25T05:10:38;98625.66;;;7.95;100.00
4814;BME280;15375;48.540;9.268;2024-01-25T05:13:03;98619.38;;;7.87;100.00
4814;BME280;15375;48.540;9.268;2024-01-25T05:15:28;98605.38;;;7.85;100.00
4814;BME280;15375;48.540;9.268;2024-01-25T05:17:54;98599.81;;;7.78;100.00
4814;BME280;15375;48.540;9.268;2024-01-25T05:20:19;98618.25;;;7.92;100.00
4814;BME280;15375;48.540;9.268;2024-01-25T05:22:44;98629.53;;;7.94;100.00
4814;BME280;15375;48.540;9.268;2024-01-25T05:25:11;98638.47;;;7.94;100.00
4814;BME280;15375;48.540;9.268;2024-01-25T05:27:36;98609.16;;;7.81;100.00
4814;BME280;15375;48.540;9.268;2024-01-25T05:30:02;98645.81;;;7.94;100.00
4814;BME280;15375;48.540;9.268;2024-01-25T05:32:28;98629.81;;;7.85;100.00
4814;BME280;15375;48.540;9.268;2024-01-25T05:34:53;98647.34;;;7.91;100.00
4814;BME280;15375;48.540;9.268;2024-01-25T05:37:19;98630.16;;;7.84;100.00
4814;BME280;15375;48.540;9.268;2024-01-25T05:39:44;98635.59;;;7.84;100.00
4814;BME280;15375;48.540;9.268;2024-01-25T05:42:09;98624.59;;;7.73;100.00
4814;BME280;15375;48.540;9.268;2024-01-25T05:44:35;98626.63;;;7.80;100.00
4814;BME280;15375;48.540;9.268;2024-01-25T05:47:00;98623.91;;;7.80;100.00
4814;BME280;15375;48.540;9.268;2024-01-25T05:49:25;98636.38;;;7.84;100.00
4814;BME280;15375;48.540;9.268;2024-01-25T05:51:51;98650.78;;;7.88;100.00
4814;BME280;15375;48.540;9.268;2024-01-25T05:54:16;98653.06;;;7.83;100.00
4814;BME280;15375;48.540;9.268;2024-01-25T05:56:42;98646.00;;;7.78;100.00
4814;BME280;15375;48.540;9.268;2024-01-25T05:59:07;98640.75;;;7.62;100.00
4814;BME280;15375;48.540;9.268;2024-01-25T06:01:33;98634.25;;;7.70;100.00
4814;BME280;15375;48.540;9.268;2024-01-25T06:03:58;98629.81;;;7.59;100.00
4814;BME280;15375;48.540;9.268;2024-01-25T06:06:23;98628.31;;;7.61;100.00
4814;BME280;15375;48.540;9.268;2024-01-25T06:08:49;98620.94;;;7.62;100.00
4814;BME280;15375;48.540;9.268;2024-01-25T06:11:14;98631.09;;;7.65;100.00
4814;BME280;15375;48.540;9.268;2024-01-25T06:13:40;98601.31;;;7.46;100.00
4814;BME280;15375;48.540;9.268;2024-01-25T06:16:06;98591.41;;;7.31;100.00
4814;BME280;15375;48.540;9.268;2024-01-25T06:18:31;98646.53;;;7.61;100.00
4814;BME280;15375;48.540;9.268;2024-01-25T06:20:57;98613.22;;;7.38;100.00
4814;BME280;15375;48.540;9.268;2024-01-25T06:23:22;98636.13;;;7.40;100.00
4814;BME280;15375;48.540;9.268;2024-01-25T06:25:47;98635.66;;;7.35;100.00
4814;BME280;15375;48.540;9.268;2024-01-25T06:28:13;98622.28;;;7.23;100.00
4814;BME280;15375;48.540;9.268;2024-01-25T06:30:38;98635.44;;;7.21;100.00
4814;BME280;15375;48.540;9.268;2024-01-25T06:33:04;98637.66;;;7.15;100.00
4814;BME280;15375;48.540;9.268;2024-01-25T06:35:29;98641.88;;;7.13;100.00
4814;BME280;15375;48.540;9.268;2024-01-25T06:37:55;98577.88;;;6.63;100.00
4814;BME280;15375;48.540;9.268;2024-01-25T06:40:21;98632.63;;;6.91;100.00
4814;BME280;15375;48.540;9.268;2024-01-25T06:42:46;98651.78;;;7.01;100.00
4814;BME280;15375;48.540;9.268;2024-01-25T06:45:11;98636.41;;;6.86;100.00
4814;BME280;15375;48.540;9.268;2024-01-25T06:47:37;98662.94;;;6.96;100.00
4814;BME280;15375;48.540;9.268;2024-01-25T06:50:02;98661.34;;;6.95;100.00
4814;BME280;15375;48.540;9.268;2024-01-25T06:52:28;98656.53;;;6.85;100.00
4814;BME280;15375;48.540;9.268;2024-01-25T06:54:53;98668.28;;;6.93;100.00
4814;BME280;15375;48.540;9.268;2024-01-25T06:57:19;98686.63;;;6.99;100.00
4814;BME280;15375;48.540;9.268;2024-01-25T06:59:45;98660.53;;;6.91;100.00
4814;BME280;15375;48.540;9.268;2024-01-25T07:02:10;98675.34;;;6.97;100.00
4814;BME280;15375;48.540;9.268;2024-01-25T07:04:36;98660.53;;;6.91;100.00
4814;BME280;15375;48.540;9.268;2024-01-25T07:07:03;98671.00;;;6.93;100.00
4814;BME280;15375;48.540;9.268;2024-01-25T07:09:28;98668.72;;;6.95;100.00
4814;BME280;15375;48.540;9.268;2024-01-25T07:11:54;98673.38;;;6.94;100.00
4814;BME280;15375;48.540;9.268;2024-01-25T07:14:19;98670.88;;;6.86;100.00
4814;BME280;15375;48.540;9.268;2024-01-25T07:16:45;98689.94;;;6.89;100.00
4814;BME280;15375;48.540;9.268;2024-01-25T07:19:10;98653.78;;;6.63;100.00
4814;BME280;15375;48.540;9.268;2024-01-25T07:21:35;98680.09;;;6.81;100.00
4814;BME280;15375;48.540;9.268;2024-01-25T07:24:03;98656.22;;;6.68;100.00
4814;BME280;15375;48.540;9.268;2024-01-25T07:26:31;98688.22;;;6.81;100.00
4814;BME280;15375;48.540;9.268;2024-01-25T07:28:57;98689.44;;;6.84;100.00
4814;BME280;15375;48.540;9.268;2024-01-25T07:31:26;98656.00;;;6.76;100.00
4814;BME280;15375;48.540;9.268;2024-01-25T07:33:53;98678.31;;;6.89;100.00
4814;BME280;15375;48.540;9.268;2024-01-25T07:36:18;98678.66;;;6.87;100.00
4814;BME280;15375;48.540;9.268;2024-01-25T07:38:44;98653.91;;;6.70;100.00
4814;BME280;15375;48.540;9.268;2024-01-25T07:41:12;98671.09;;;6.77;100.00
4814;BME280;15375;48.540;9.268;2024-01-25T07:43:37;98658.78;;;6.61;100.00
4814;BME280;15375;48.540;9.268;2024-01-25T07:46:02;98656.91;;;6.65;100.00
4814;BME280;15375;48.540;9.268;2024-01-25T07:48:28;98671.56;;;6.79;100.00
4814;BME280;15375;48.540;9.268;2024-01-25T07:50:53;98678.84;;;6.98;100.00
4814;BME280;15375;48.540;9.268;2024-01-25T07:53:18;98667.28;;;7.01;100.00
4814;BME280;15375;48.540;9.268;2024-01-25T07:55:44;98645.16;;;6.99;100.00
4814;BME280;15375;48.540;9.268;2024-01-25T07:58:10;98661.06;;;7.23;100.00
4814;BME280;15375;48.540;9.268;2024-01-25T08:00:35;98653.47;;;7.32;100.00
4814;BME280;15375;48.540;9.268;2024-01-25T08:03:01;98657.50;;;7.42;100.00
4814;BME280;15375;48.540;9.268;2024-01-25T08:05:26;98658.38;;;7.49;100.00
4814;BME280;15375;48.540;9.268;2024-01-25T08:07:51;98679.84;;;7.84;100.00
4814;BME280;15375;48.540;9.268;2024-01-25T08:10:17;98653.09;;;7.86;100.00
4814;BME280;15375;48.540;9.268;2024-01-25T08:12:42;98654.59;;;8.10;100.00
4814;BME280;15375;48.540;9.268;2024-01-25T08:15:10;98660.16;;;8.20;100.00
4814;BME280;15375;48.540;9.268;2024-01-25T08:17:37;98676.16;;;8.55;100.00
4814;BME280;15375;48.540;9.268;2024-01-25T08:20:03;98670.50;;;8.71;100.00
4814;BME280;15375;48.540;9.268;2024-01-25T08:22:31;98669.78;;;8.77;100.00
4814;BME280;15375;48.540;9.268;2024-01-25T08:24:56;98666.13;;;8.99;100.00
4814;BME280;15375;48.540;9.268;2024-01-25T08:27:21;98647.63;;;9.19;100.00
4814;BME280;15375;48.540;9.268;2024-01-25T08:29:47;98655.19;;;9.40;100.00
4814;BME280;15375;48.540;9.268;2024-01-25T08:32:12;98648.69;;;9.51;100.00
4814;BME280;15375;48.540;9.268;2024-01-25T08:34:37;98663.19;;;9.66;100.00
4814;BME280;15375;48.540;9.268;2024-01-25T08:37:03;98661.81;;;9.97;100.00
4814;BME280;15375;48.540;9.268;2024-01-25T08:39:28;98635.22;;;9.80;100.00
4814;BME280;15375;48.540;9.268;2024-01-25T08:41:54;98655.94;;;9.91;100.00
4814;BME280;15375;48.540;9.268;2024-01-25T08:44:26;98656.03;;;10.09;100.00
4814;BME280;15375;48.540;9.268;2024-01-25T08:46:52;98647.38;;;9.93;100.00
4814;BME280;15375;48.540;9.268;2024-01-25T08:49:17;98653.47;;;9.69;100.00
4814;BME280;15375;48.540;9.268;2024-01-25T08:51:42;98655.88;;;9.81;100.00
4814;BME280;15375;48.540;9.268;2024-01-25T08:54:08;98660.66;;;9.98;100.00
4814;BME280;15375;48.540;9.268;2024-01-25T08:56:34;98693.09;;;10.13;100.00
4814;BME280;15375;48.540;9.268;2024-01-25T08:59:00;98696.00;;;10.49;100.00
4814;BME280;15375;48.540;9.268;2024-01-25T09:01:25;98676.00;;;10.23;100.00
4814;BME280;15375;48.540;9.268;2024-01-25T09:03:52;98710.19;;;10.07;100.00
4814;BME280;15375;48.540;9.268;2024-01-25T09:06:17;98697.06;;;10.30;100.00
4814;BME280;15375;48.540;9.268;2024-01-25T09:08:43;98720.28;;;10.78;100.00
4814;BME280;15375;48.540;9.268;2024-01-25T09:11:11;98707.44;;;10.93;97.79
4814;BME280;15375;48.540;9.268;2024-01-25T09:13:36;98710.97;;;10.94;97.24
4814;BME280;15375;48.540;9.268;2024-01-25T09:16:02;98707.09;;;11.16;94.92
4814;BME280;15375;48.540;9.268;2024-01-25T09:18:27;98686.44;;;11.36;93.36
4814;BME280;15375;48.540;9.268;2024-01-25T09:20:53;98679.03;;;11.33;95.65
4814;BME280;15375;48.540;9.268;2024-01-25T09:23:18;98693.50;;;11.65;91.40
4814;BME280;15375;48.540;9.268;2024-01-25T09:25:44;98681.00;;;11.92;89.31
4814;BME280;15375;48.540;9.268;2024-01-25T09:28:10;98704.00;;;12.12;89.53
4814;BME280;15375;48.540;9.268;2024-01-25T09:30:40;98690.31;;;12.12;84.64
4814;BME280;15375;48.540;9.268;2024-01-25T09:33:06;98700.78;;;12.46;84.94
4814;BME280;15375;48.540;9.268;2024-01-25T09:35:32;98707.03;;;12.43;82.32
4814;BME280;15375;48.540;9.268;2024-01-25T09:37:57;98696.84;;;12.47;82.97
4814;BME280;15375;48.540;9.268;2024-01-25T09:40:25;98719.22;;;12.21;82.96
4814;BME280;15375;48.540;9.268;2024-01-25T09:42:52;98717.94;;;12.57;82.59
4814;BME280;15375;48.540;9.268;2024-01-25T09:45:18;98726.25;;;12.22;84.13
4814;BME280;15375;48.540;9.268;2024-01-25T09:47:48;98716.53;;;11.92;86.32
4814;BME280;15375;48.540;9.268;2024-01-25T09:50:13;98719.94;;;12.42;83.31
4814;BME280;15375;48.540;9.268;2024-01-25T09:52:39;98710.50;;;12.54;82.22
4814;BME280;15375;48.540;9.268;2024-01-25T09:55:07;98729.91;;;12.91;81.28
4814;BME280;15375;48.540;9.268;2024-01-25T09:57:35;98727.59;;;12.79;79.16
4814;BME280;15375;48.540;9.268;2024-01-25T10:00:04;98729.50;;;12.93;79.55
4814;BME280;15375;48.540;9.268;2024-01-25T10:02:30;98727.28;;;12.70;79.73
4814;BME280;15375;48.540;9.268;2024-01-25T10:04:56;98717.47;;;12.72;82.41
4814;BME280;15375;48.540;9.268;2024-01-25T10:10:02;98730.84;;;12.53;84.29
4814;BME280;15375;48.540;9.268;2024-01-25T10:12:30;98723.63;;;13.01;79.85
4814;BME280;15375;48.540;9.268;2024-01-25T10:14:55;98721.66;;;12.98;75.42
4814;BME280;15375;48.540;9.268;2024-01-25T10:17:20;98727.75;;;12.37;81.40
4814;BME280;15375;48.540;9.268;2024-01-25T10:19:46;98738.38;;;12.13;86.93
4814;BME280;15375;48.540;9.268;2024-01-25T10:22:11;98734.06;;;12.20;85.59
4814;BME280;15375;48.540;9.268;2024-01-25T10:24:39;98740.69;;;12.18;82.76
4814;BME280;15375;48.540;9.268;2024-01-25T10:27:05;98726.97;;;12.36;83.51
4814;BME280;15375;48.540;9.268;2024-01-25T10:29:30;98727.84;;;11.94;87.08
4814;BME280;15375;48.540;9.268;2024-01-25T10:31:55;98737.22;;;12.04;87.18
4814;BME280;15375;48.540;9.268;2024-01-25T10:34:22;98729.75;;;12.18;83.72
4814;BME280;15375;48.540;9.268;2024-01-25T10:36:51;98702.69;;;12.49;81.72
4814;BME280;15375;48.540;9.268;2024-01-25T10:39:17;98710.28;;;12.02;82.61
4814;BME280;15375;48.540;9.268;2024-01-25T10:41:45;98702.84;;;11.61;84.83
4814;BME280;15375;48.540;9.268;2024-01-25T10:44:15;98713.81;;;11.82;86.61
4814;BME280;15375;48.540;9.268;2024-01-25T10:46:41;98709.09;;;11.89;87.55
4814;BME280;15375;48.540;9.268;2024-01-25T10:49:07;98706.34;;;12.10;86.98
4814;BME280;15375;48.540;9.268;2024-01-25T10:51:33;98699.81;;;12.84;80.84
4814;BME280;15375;48.540;9.268;2024-01-25T10:53:59;98679.59;;;13.77;75.05
4814;BME280;15375;48.540;9.268;2024-01-25T10:56:25;98674.78;;;13.48;74.66
4814;BME280;15375;48.540;9.268;2024-01-25T10:58:50;98678.41;;;12.61;73.85
4814;BME280;15375;48.540;9.268;2024-01-25T11:01:17;98682.25;;;12.74;77.81
4814;BME280;15375;48.540;9.268;2024-01-25T11:03:45;98689.34;;;12.68;81.44
4814;BME280;15375;48.540;9.268;2024-01-25T11:06:14;98677.63;;;12.64;76.22
4814;BME280;15375;48.540;9.268;2024-01-25T11:08:40;98668.16;;;12.83;74.63
4814;BME280;15375;48.540;9.268;2024-01-25T11:11:06;98682.81;;;13.17;73.18
4814;BME280;15375;48.540;9.268;2024-01-25T11:13:35;98663.44;;;13.46;71.22
4814;BME280;15375;48.540;9.268;2024-01-25T11:16:14;98652.03;;;14.32;69.56
4814;BME280;15375;48.540;9.268;2024-01-25T11:18:50;98655.72;;;14.15;71.82
4814;BME280;15375;48.540;9.268;2024-01-25T11:21:26;98655.06;;;14.41;70.35
4814;BME280;15375;48.540;9.268;2024-01-25T11:24:02;98636.13;;;14.17;69.95
4814;BME280;15375;48.540;9.268;2024-01-25T11:26:28;98626.22;;;13.48;69.26
4814;BME280;15375;48.540;9.268;2024-01-25T11:28:54;98642.25;;;12.98;73.10
4814;BME280;15375;48.540;9.268;2024-01-25T11:31:21;98639.25;;;12.71;76.19
4814;BME280;15375;48.540;9.268;2024-01-25T11:33:47;98626.31;;;11.89;83.19
4814;BME280;15375;48.540;9.268;2024-01-25T11:36:12;98643.13;;;11.48;87.17
4814;BME280;15375;48.540;9.268;2024-01-25T11:38:38;98646.66;;;11.70;89.38
4814;BME280;15375;48.540;9.268;2024-01-25T11:41:03;98654.38;;;12.07;85.06
4814;BME280;15375;48.540;9.268;2024-01-25T11:43:28;98643.03;;;12.08;84.31
4814;BME280;15375;48.540;9.268;2024-01-25T11:45:54;98624.69;;;12.09;82.96
4814;BME280;15375;48.540;9.268;2024-01-25T11:48:20;98626.94;;;12.35;78.21
4814;BME280;15375;48.540;9.268;2024-01-25T11:50:45;98616.81;;;12.22;77.99
4814;BME280;15375;48.540;9.268;2024-01-25T11:53:11;98619.78;;;12.59;72.91
4814;BME280;15375;48.540;9.268;2024-01-25T11:55:36;98606.47;;;13.23;73.71
4814;BME280;15375;48.540;9.268;2024-01-25T11:58:02;98603.25;;;13.76;69.46
4814;BME280;15375;48.540;9.268;2024-01-25T12:00:27;98586.09;;;13.65;66.29
4814;BME280;15375;48.540;9.268;2024-01-25T12:02:53;98594.06;;;13.04;68.74
4814;BME280;15375;48.540;9.268;2024-01-25T12:05:19;98593.75;;;12.95;67.02
4814;BME280;15375;48.540;9.268;2024-01-25T12:07:45;98601.28;;;13.35;67.35
4814;BME280;15375;48.540;9.268;2024-01-25T12:10:15;98601.41;;;13.18;68.09
4814;BME280;15375;48.540;9.268;2024-01-25T12:12:42;98594.19;;;13.41;67.50
4814;BME280;15375;48.540;9.268;2024-01-25T12:15:07;98611.75;;;12.96;68.28
4814;BME280;15375;48.540;9.268;2024-01-25T12:17:34;98604.59;;;13.13;67.17
4814;BME280;15375;48.540;9.268;2024-01-25T12:20:04;98601.19;;;12.22;71.14
4814;BME280;15375;48.540;9.268;2024-01-25T12:22:36;98580.97;;;11.98;74.98
4814;BME280;15375;48.540;9.268;2024-01-25T12:25:01;98591.06;;;12.12;78.92
4814;BME280;15375;48.540;9.268;2024-01-25T12:27:27;98602.53;;;12.65;74.04
4814;BME280;15375;48.540;9.268;2024-01-25T12:29:53;98593.59;;;12.54;73.42
4814;BME280;15375;48.540;9.268;2024-01-25T12:32:21;98593.31;;;12.31;76.15
4814;BME280;15375;48.540;9.268;2024-01-25T12:34:56;98578.69;;;11.83;77.63
4814;BME280;15375;48.540;9.268;2024-01-25T12:37:23;98597.34;;;12.12;80.86
4814;BME280;15375;48.540;9.268;2024-01-25T12:39:51;98582.59;;;12.68;78.29
4814;BME280;15375;48.540;9.268;2024-01-25T12:42:18;98570.16;;;13.12;74.04
4814;BME280;15375;48.540;9.268;2024-01-25T12:44:43;98548.53;;;12.73;68.93
4814;BME280;15375;48.540;9.268;2024-01-25T12:47:09;98570.13;;;13.15;73.46
4814;BME280;15375;48.540;9.268;2024-01-25T12:49:34;98563.16;;;13.07;67.65
4814;BME280;15375;48.540;9.268;2024-01-25T12:52:00;98553.88;;;12.87;67.65
4814;BME280;15375;48.540;9.268;2024-01-25T12:54:26;98545.31;;;12.81;69.69
4814;BME280;15375;48.540;9.268;2024-01-25T12:56:52;98558.75;;;12.65;72.64
4814;BME280;15375;48.540;9.268;2024-01-25T12:59:17;98562.28;;;12.66;74.28
4814;BME280;15375;48.540;9.268;2024-01-25T13:01:43;98548.66;;;12.55;70.90
4814;BME280;15375;48.540;9.268;2024-01-25T13:04:08;98542.84;;;12.98;67.80
4814;BME280;15375;48.540;9.268;2024-01-25T13:06:34;98519.50;;;12.82;66.33
4814;BME280;15375;48.540;9.268;2024-01-25T13:08:59;98531.44;;;12.55;69.11